Time;durP1;ratioP1;P1;durP2;ratioP2;P2;SDS_P1;SDS_P2;PMS_P1;PMS_P2;Temp;Humidity;BMP_temperature;BMP_pressure;BME280_temperature;BME280_humidity;BME280_pressure;Samples;Min_cycle;Max_cycle;Signal;HPM_P1;HPM_P2
2021/10/31 00:00:04;;;;;;;12.43;10.35;;;;;;;;;;5059504;28;20028;-71
2021/10/31 00:02:31;;;;;;;12.95;9.82;;;;;;;;;;5056447;28;20036;-71
2021/10/31 00:04:57;;;;;;;11.77;10.05;;;;;;;;;;5056159;28;20024;-70
2021/10/31 00:07:23;;;;;;;15.43;10.82;;;;;;;;;;5056819;28;20559;-71
2021/10/31 00:09:49;;;;;;;14.55;10.65;;;;;;;;;;5056687;28;20507;-71
2021/10/31 00:12:15;;;;;;;11.93;10.38;;;;;;;;;;5058166;28;20759;-71
2021/10/31 00:14:42;;;;;;;12.55;11.02;;;;;;;;;;5055982;28;20024;-71
2021/10/31 00:17:08;;;;;;;12.95;10.63;;;;;;;;;;5056638;28;20261;-71
2021/10/31 00:19:34;;;;;;;13.65;10.27;;;;;;;;;;5054147;28;20021;-71
2021/10/31 00:22:01;;;;;;;10.65;9.63;;;;;;;;;;5040661;28;20029;-72
2021/10/31 00:24:27;;;;;;;11.38;9.85;;;;;;;;;;5057739;28;20046;-70
2021/10/31 00:26:53;;;;;;;10.93;9.48;;;;;;;;;;5058745;28;20029;-72
2021/10/31 00:29:19;;;;;;;11.75;9.07;;;;;;;;;;5056252;28;20542;-71
2021/10/31 00:31:45;;;;;;;13.18;9.77;;;;;;;;;;5057055;28;20029;-72
2021/10/31 00:34:11;;;;;;;12.85;9.23;;;;;;;;;;5043388;28;20369;-70
2021/10/31 00:36:39;;;;;;;12.85;8.88;;;;;;;;;;5058986;28;20044;-71
2021/10/31 00:39:06;;;;;;;10.90;9.35;;;;;;;;;;5055901;28;20039;-70
2021/10/31 00:41:33;;;;;;;11.65;9.57;;;;;;;;;;5057163;28;20036;-71
2021/10/31 00:43:59;;;;;;;12.75;9.10;;;;;;;;;;5054526;28;20025;-70
2021/10/31 00:46:26;;;;;;;12.65;8.85;;;;;;;;;;5055668;28;20032;-71
2021/10/31 00:48:52;;;;;;;14.90;8.88;;;;;;;;;;5058505;28;20026;-71
2021/10/31 00:51:18;;;;;;;15.02;9.45;;;;;;;;;;5053977;28;20366;-71
2021/10/31 00:53:45;;;;;;;13.70;9.75;;;;;;;;;;5039277;28;20510;-71
2021/10/31 00:56:11;;;;;;;11.70;9.07;;;;;;;;;;5056847;28;20248;-72
2021/10/31 00:58:38;;;;;;;15.70;10.35;;;;;;;;;;5057205;28;20319;-71
2021/10/31 01:01:04;;;;;;;16.05;10.40;;;;;;;;;;5055577;28;20079;-73
2021/10/31 01:03:30;;;;;;;12.63;9.98;;;;;;;;;;5060422;28;20021;-73
2021/10/31 01:06:14;;;;;;;12.15;9.00;;;;;;;;;;5060371;28;20017;-71
2021/10/31 01:08:45;;;;;;;14.35;9.98;;;;;;;;;;5058897;28;20012;-72
2021/10/31 01:11:27;;;;;;;11.65;9.07;;;;;;;;;;5050703;28;20028;-72
2021/10/31 01:14:12;;;;;;;13.43;9.75;;;;;;;;;;5050292;28;20052;-71
2021/10/31 01:16:47;;;;;;;12.68;9.45;;;;;;;;;;5056191;28;20028;-71
2021/10/31 01:19:15;;;;;;;14.18;9.25;;;;;;;;;;5057722;28;20072;-72
2021/10/31 01:21:45;;;;;;;14.82;9.25;;;;;;;;;;5056557;28;20017;-71
2021/10/31 01:24:20;;;;;;;10.90;9.55;;;;;;;;;;5057265;28;20037;-71
2021/10/31 01:27:05;;;;;;;13.20;10.38;;;;;;;;;;5048507;28;20025;-72
2021/10/31 01:29:41;;;;;;;13.02;8.77;;;;;;;;;;5058887;28;20013;-71
2021/10/31 01:32:14;;;;;;;12.02;10.40;;;;;;;;;;5036449;28;20037;-73
2021/10/31 01:34:45;;;;;;;13.23;8.35;;;;;;;;;;5060719;28;20515;-70
2021/10/31 01:37:46;;;;;;;10.73;8.87;;;;;;;;;;5054424;28;20036;-71
2021/10/31 01:40:18;;;;;;;14.02;8.77;;;;;;;;;;5007636;28;20037;-71
2021/10/31 01:42:44;;;;;;;12.38;9.15;;;;;;;;;;5058584;28;20392;-71
2021/10/31 01:45:16;;;;;;;12.95;9.80;;;;;;;;;;5061696;28;20453;-71
2021/10/31 01:47:54;;;;;;;11.63;8.75;;;;;;;;;;5061949;28;20032;-71
2021/10/31 01:50:28;;;;;;;15.55;9.82;;;;;;;;;;5060163;28;20028;-70
2021/10/31 01:52:57;;;;;;;10.77;9.32;;;;;;;;;;5060237;28;20025;-72
2021/10/31 01:55:27;;;;;;;15.23;9.98;;;;;;;;;;5060780;28;20042;-71
2021/10/31 01:57:57;;;;;;;13.02;9.73;;;;;;;;;;5061673;28;20039;-71
2021/10/31 02:00:23;;;;;;;12.25;10.05;;;;;;;;;;5059269;28;20096;-71
2021/10/31 02:02:49;;;;;;;17.45;9.93;;;;;;;;;;5062168;28;20066;-70
2021/10/31 02:05:17;;;;;;;14.00;10.35;;;;;;;;;;5059063;28;20089;-71
2021/10/31 02:07:47;;;;;;;12.23;10.23;;;;;;;;;;5060799;28;20020;-71
2021/10/31 02:10:13;;;;;;;13.10;11.00;;;;;;;;;;5053323;28;20040;-72
2021/10/31 02:12:40;;;;;;;19.25;11.95;;;;;;;;;;5060981;28;20020;-71
2021/10/31 02:15:07;;;;;;;16.27;11.27;;;;;;;;;;5059252;28;20469;-70
2021/10/31 02:17:34;;;;;;;16.10;11.23;;;;;;;;;;5061554;28;20618;-71
2021/10/31 02:20:00;;;;;;;12.82;11.52;;;;;;;;;;5058178;28;20051;-71
2021/10/31 02:22:32;;;;;;;13.00;10.15;;;;;;;;;;5061246;28;20039;-72
2021/10/31 02:25:00;;;;;;;15.30;10.45;;;;;;;;;;5058050;28;20033;-71
2021/10/31 02:27:30;;;;;;;15.95;10.15;;;;;;;;;;5056294;28;20101;-72
2021/10/31 02:29:58;;;;;;;10.57;9.45;;;;;;;;;;5058132;28;20078;-71
2021/10/31 02:32:25;;;;;;;13.75;10.30;;;;;;;;;;5061989;28;20857;-71
2021/10/31 02:34:52;;;;;;;15.85;10.55;;;;;;;;;;5060463;28;20055;-71
2021/10/31 02:37:19;;;;;;;12.15;9.45;;;;;;;;;;5059198;28;20083;-71
2021/10/31 02:39:45;;;;;;;15.13;10.75;;;;;;;;;;5059431;28;20091;-71
2021/10/31 02:42:12;;;;;;;14.00;9.38;;;;;;;;;;5058781;28;20033;-71
2021/10/31 02:44:39;;;;;;;11.73;9.95;;;;;;;;;;5055384;28;20509;-71
2021/10/31 02:47:07;;;;;;;14.48;10.40;;;;;;;;;;5056807;28;20029;-71
2021/10/31 02:49:33;;;;;;;19.88;10.65;;;;;;;;;;5057058;28;20408;-72
2021/10/31 02:52:14;;;;;;;14.55;10.18;;;;;;;;;;5061217;28;20048;-71
2021/10/31 02:54:52;;;;;;;12.82;10.32;;;;;;;;;;5055631;28;20028;-71
2021/10/31 02:57:20;;;;;;;12.40;9.82;;;;;;;;;;5058048;28;20048;-71
2021/10/31 02:59:48;;;;;;;14.00;9.65;;;;;;;;;;5060655;28;20051;-72
2021/10/31 03:02:16;;;;;;;10.75;8.65;;;;;;;;;;5045381;28;20024;-71
2021/10/31 03:04:43;;;;;;;17.80;9.82;;;;;;;;;;5056981;28;20354;-71
2021/10/31 03:07:09;;;;;;;14.45;9.93;;;;;;;;;;5056448;28;20028;-71
2021/10/31 03:09:35;;;;;;;13.50;9.00;;;;;;;;;;5059185;28;20016;-71
2021/10/31 03:12:02;;;;;;;11.07;8.48;;;;;;;;;;5057450;28;20029;-71
2021/10/31 03:14:28;;;;;;;10.23;8.77;;;;;;;;;;5060398;28;20534;-71
2021/10/31 03:16:55;;;;;;;10.60;8.85;;;;;;;;;;5056791;28;20025;-71
2021/10/31 03:19:21;;;;;;;14.57;7.90;;;;;;;;;;5061640;28;20021;-71
2021/10/31 03:21:47;;;;;;;11.10;7.88;;;;;;;;;;5062695;28;20199;-70
2021/10/31 03:24:13;;;;;;;11.70;8.68;;;;;;;;;;5057573;28;20506;-71
2021/10/31 03:26:40;;;;;;;15.55;8.57;;;;;;;;;;5059786;28;20482;-71
2021/10/31 03:29:06;;;;;;;13.45;8.48;;;;;;;;;;5056090;28;20346;-71
2021/10/31 03:31:32;;;;;;;11.65;7.85;;;;;;;;;;5059753;28;20464;-71
2021/10/31 03:33:58;;;;;;;10.50;8.10;;;;;;;;;;5055815;28;20623;-71
2021/10/31 03:36:24;;;;;;;10.27;8.88;;;;;;;;;;5058409;28;20117;-71
2021/10/31 03:38:50;;;;;;;12.35;8.75;;;;;;;;;;5057512;28;20071;-71
2021/10/31 03:41:16;;;;;;;11.27;8.77;;;;;;;;;;5055632;28;20016;-73
2021/10/31 03:43:43;;;;;;;10.43;9.30;;;;;;;;;;5057751;28;20115;-71
2021/10/31 03:46:09;;;;;;;11.23;8.65;;;;;;;;;;5056311;28;20031;-71
2021/10/31 03:48:35;;;;;;;11.93;9.52;;;;;;;;;;5058525;28;20040;-71
2021/10/31 03:51:01;;;;;;;14.63;9.35;;;;;;;;;;5057383;28;20032;-71
2021/10/31 03:53:27;;;;;;;16.08;9.10;;;;;;;;;;5061133;28;20024;-71
2021/10/31 03:55:53;;;;;;;11.07;8.48;;;;;;;;;;5052888;28;20044;-71
2021/10/31 03:58:20;;;;;;;13.52;9.15;;;;;;;;;;5039520;28;20064;-71
2021/10/31 04:00:46;;;;;;;11.55;8.88;;;;;;;;;;5059727;28;20025;-71
2021/10/31 04:03:12;;;;;;;11.80;9.55;;;;;;;;;;5051012;28;20496;-71
2021/10/31 04:05:39;;;;;;;17.50;10.35;;;;;;;;;;5051989;28;20496;-71
2021/10/31 04:08:05;;;;;;;13.73;9.15;;;;;;;;;;5054639;28;20032;-72
2021/10/31 04:10:32;;;;;;;13.15;9.23;;;;;;;;;;5050671;28;20020;-71
2021/10/31 04:12:58;;;;;;;10.98;9.13;;;;;;;;;;5054347;28;20029;-71
2021/10/31 04:15:24;;;;;;;12.40;8.98;;;;;;;;;;5054009;28;20071;-71
2021/10/31 04:17:51;;;;;;;11.98;8.50;;;;;;;;;;5050316;28;20048;-71
2021/10/31 04:20:17;;;;;;;8.80;7.88;;;;;;;;;;5052841;28;20024;-71
2021/10/31 04:22:48;;;;;;;9.23;7.25;;;;;;;;;;5052625;28;20032;-72
2021/10/31 04:25:14;;;;;;;9.07;6.65;;;;;;;;;;5053112;28;20047;-71
2021/10/31 04:27:40;;;;;;;7.40;6.47;;;;;;;;;;5050320;28;20424;-71
2021/10/31 04:30:08;;;;;;;9.65;6.25;;;;;;;;;;5049424;28;20033;-71
2021/10/31 04:32:35;;;;;;;6.72;5.45;;;;;;;;;;5053185;28;20103;-70
2021/10/31 04:35:01;;;;;;;7.05;6.25;;;;;;;;;;5049163;28;20507;-71
2021/10/31 04:37:28;;;;;;;9.45;5.95;;;;;;;;;;5052181;28;20040;-70
2021/10/31 04:39:57;;;;;;;7.53;6.55;;;;;;;;;;5050086;28;20397;-71
2021/10/31 04:42:29;;;;;;;7.70;6.30;;;;;;;;;;5051858;28;20025;-72
2021/10/31 04:44:55;;;;;;;;;;;;;;;;;;5053125;28;20029;-71
2021/10/31 04:47:21;;;;;;;11.65;7.05;;;;;;;;;;5050341;28;19909;-72
2021/10/31 04:49:47;;;;;;;7.82;6.85;;;;;;;;;;5051279;28;20030;-71
2021/10/31 04:52:14;;;;;;;10.55;6.50;;;;;;;;;;5057177;28;20036;-71
2021/10/31 04:54:41;;;;;;;8.48;7.10;;;;;;;;;;5054249;28;20058;-71
2021/10/31 04:57:07;;;;;;;11.15;6.88;;;;;;;;;;5049811;28;20457;-70
2021/10/31 04:59:34;;;;;;;9.88;6.65;;;;;;;;;;5051067;28;20025;-71
2021/10/31 05:02:00;;;;;;;8.73;7.15;;;;;;;;;;5053332;28;20029;-72
2021/10/31 05:04:26;;;;;;;10.52;7.20;;;;;;;;;;5034188;28;20036;-71
2021/10/31 05:06:53;;;;;;;8.32;6.55;;;;;;;;;;5050697;28;20029;-71
2021/10/31 05:09:19;;;;;;;14.02;7.32;;;;;;;;;;5052280;28;20028;-71
2021/10/31 05:11:45;;;;;;;9.60;7.15;;;;;;;;;;5053627;28;20397;-71
2021/10/31 05:14:11;;;;;;;9.13;6.93;;;;;;;;;;5049660;28;20021;-72
2021/10/31 05:16:37;;;;;;;8.52;6.32;;;;;;;;;;5052059;28;20032;-72
2021/10/31 05:19:09;;;;;;;10.52;6.88;;;;;;;;;;5051674;28;20033;-72
2021/10/31 05:21:35;;;;;;;10.60;7.00;;;;;;;;;;5046626;28;20104;-71
2021/10/31 05:24:01;;;;;;;8.95;6.93;;;;;;;;;;5050227;28;20024;-73
2021/10/31 05:26:27;;;;;;;11.15;7.30;;;;;;;;;;5054640;28;20025;-73
2021/10/31 05:28:54;;;;;;;8.15;6.45;;;;;;;;;;5051921;28;20032;-71
2021/10/31 05:31:20;;;;;;;8.02;6.38;;;;;;;;;;5054280;28;20056;-71
2021/10/31 05:33:47;;;;;;;8.23;6.53;;;;;;;;;;5055919;28;20648;-71
2021/10/31 05:36:13;;;;;;;9.07;6.30;;;;;;;;;;5060399;28;20021;-71
2021/10/31 05:38:39;;;;;;;12.90;7.05;;;;;;;;;;5050817;28;20492;-70
2021/10/31 05:41:06;;;;;;;16.20;7.43;;;;;;;;;;5053903;28;20416;-71
2021/10/31 05:43:32;;;;;;;9.70;7.97;;;;;;;;;;5049648;28;20108;-71
2021/10/31 05:45:59;;;;;;;11.27;7.32;;;;;;;;;;5050530;28;20047;-71
2021/10/31 05:48:25;;;;;;;9.13;7.00;;;;;;;;;;5052020;28;20085;-73
2021/10/31 05:50:55;;;;;;;9.07;6.85;;;;;;;;;;5051654;28;20107;-71
2021/10/31 05:53:22;;;;;;;8.48;6.97;;;;;;;;;;5051930;28;20159;-71
2021/10/31 05:55:48;;;;;;;6.85;5.97;;;;;;;;;;5049966;28;20420;-71
2021/10/31 05:58:14;;;;;;;8.90;6.40;;;;;;;;;;5051586;28;20107;-71
2021/10/31 06:00:40;;;;;;;8.27;6.53;;;;;;;;;;5051889;28;20032;-72
2021/10/31 06:03:07;;;;;;;8.52;6.75;;;;;;;;;;5053802;28;20064;-71
2021/10/31 06:05:33;;;;;;;9.60;6.43;;;;;;;;;;5052512;28;20575;-71
2021/10/31 06:07:59;;;;;;;7.53;5.82;;;;;;;;;;5045736;28;20595;-71
2021/10/31 06:10:25;;;;;;;7.35;6.00;;;;;;;;;;5048855;28;20037;-72
2021/10/31 06:12:52;;;;;;;8.80;6.00;;;;;;;;;;5050994;28;20814;-71
2021/10/31 06:15:20;;;;;;;7.63;5.90;;;;;;;;;;5050848;28;20602;-72
2021/10/31 06:17:46;;;;;;;6.47;5.80;;;;;;;;;;5047377;28;20040;-71
2021/10/31 06:20:13;;;;;;;7.10;5.60;;;;;;;;;;5049940;28;20116;-71
2021/10/31 06:22:40;;;;;;;9.02;6.35;;;;;;;;;;5058223;28;20036;-73
2021/10/31 06:25:06;;;;;;;6.82;6.00;;;;;;;;;;5048202;28;20036;-72
2021/10/31 06:27:33;;;;;;;21.92;6.63;;;;;;;;;;5051645;28;20039;-71
2021/10/31 06:29:59;;;;;;;12.70;7.20;;;;;;;;;;5053883;28;20116;-71
2021/10/31 06:32:26;;;;;;;8.45;5.93;;;;;;;;;;5051449;28;20527;-73
2021/10/31 06:34:52;;;;;;;8.80;6.35;;;;;;;;;;5053658;28;20070;-72
2021/10/31 06:37:18;;;;;;;9.52;6.60;;;;;;;;;;5054753;28;20117;-71
2021/10/31 06:39:45;;;;;;;8.32;6.07;;;;;;;;;;5051282;28;20033;-71
2021/10/31 06:42:11;;;;;;;10.65;6.40;;;;;;;;;;5054352;28;20039;-71
2021/10/31 06:44:37;;;;;;;7.50;6.10;;;;;;;;;;5055786;28;20053;-72
2021/10/31 06:47:04;;;;;;;8.88;6.22;;;;;;;;;;5054247;28;20032;-70
2021/10/31 06:49:30;;;;;;;7.85;6.50;;;;;;;;;;5052213;28;20027;-71
2021/10/31 06:51:56;;;;;;;7.28;6.07;;;;;;;;;;5052408;28;20120;-73
2021/10/31 06:54:23;;;;;;;8.80;6.05;;;;;;;;;;5051012;28;20043;-72
2021/10/31 06:56:49;;;;;;;7.75;6.35;;;;;;;;;;5051807;28;20673;-72
2021/10/31 06:59:15;;;;;;;7.47;6.35;;;;;;;;;;5032416;28;20380;-71
2021/10/31 07:01:41;;;;;;;7.65;6.07;;;;;;;;;;5054252;28;20521;-71
2021/10/31 07:04:08;;;;;;;8.43;6.40;;;;;;;;;;5054990;28;20622;-72
2021/10/31 07:06:35;;;;;;;9.63;7.47;;;;;;;;;;5056168;28;20071;-73
2021/10/31 07:09:02;;;;;;;10.93;7.30;;;;;;;;;;5055085;28;20112;-72
2021/10/31 07:11:28;;;;;;;9.10;6.65;;;;;;;;;;5051972;28;20035;-73
2021/10/31 07:13:54;;;;;;;9.52;6.18;;;;;;;;;;5052809;28;20048;-72
2021/10/31 07:16:20;;;;;;;6.70;5.90;;;;;;;;;;5050860;28;20035;-72
2021/10/31 07:18:47;;;;;;;8.55;6.45;;;;;;;;;;5051167;28;20033;-71
2021/10/31 07:21:13;;;;;;;7.03;6.32;;;;;;;;;;5055767;28;20016;-73
2021/10/31 07:23:39;;;;;;;8.27;6.28;;;;;;;;;;5054703;28;20033;-73
2021/10/31 07:26:07;;;;;;;11.95;6.72;;;;;;;;;;5055033;28;20024;-71
2021/10/31 07:28:33;;;;;;;10.25;6.43;;;;;;;;;;5059880;28;20074;-71
2021/10/31 07:31:01;;;;;;;7.05;6.35;;;;;;;;;;5052752;28;20532;-71
2021/10/31 07:33:28;;;;;;;7.43;6.20;;;;;;;;;;5053194;28;20111;-73
2021/10/31 07:35:54;;;;;;;10.85;6.80;;;;;;;;;;5049389;28;20025;-72
2021/10/31 07:38:20;;;;;;;11.07;6.15;;;;;;;;;;5053305;28;20518;-71
2021/10/31 07:40:46;;;;;;;8.63;6.60;;;;;;;;;;5053981;28;20017;-71
2021/10/31 07:43:12;;;;;;;7.45;6.53;;;;;;;;;;5056024;28;20032;-71
2021/10/31 07:45:42;;;;;;;11.65;7.45;;;;;;;;;;5058534;28;20099;-71
2021/10/31 07:48:09;;;;;;;7.93;6.22;;;;;;;;;;5060624;28;20036;-70
2021/10/31 07:50:36;;;;;;;13.90;6.70;;;;;;;;;;5057660;28;20028;-71
2021/10/31 07:53:03;;;;;;;7.63;6.68;;;;;;;;;;5055827;28;20052;-73
2021/10/31 07:55:31;;;;;;;7.57;6.80;;;;;;;;;;5057678;28;20051;-72
2021/10/31 07:57:59;;;;;;;7.55;6.63;;;;;;;;;;5053242;28;20032;-71
2021/10/31 08:00:25;;;;;;;10.65;6.97;;;;;;;;;;5057130;28;20038;-71
2021/10/31 08:02:51;;;;;;;8.38;7.10;;;;;;;;;;5050913;28;20036;-72
2021/10/31 08:05:18;;;;;;;8.45;6.72;;;;;;;;;;5054201;28;20020;-71
2021/10/31 08:07:44;;;;;;;7.82;6.68;;;;;;;;;;5030601;28;20028;-72
2021/10/31 08:10:11;;;;;;;10.68;7.57;;;;;;;;;;5049889;28;20508;-72
2021/10/31 08:12:38;;;;;;;13.30;7.82;;;;;;;;;;5054508;28;20475;-73
2021/10/31 08:15:04;;;;;;;8.88;7.30;;;;;;;;;;5050908;28;20021;-72
2021/10/31 08:17:30;;;;;;;10.98;8.13;;;;;;;;;;5052831;28;20040;-71
2021/10/31 08:19:57;;;;;;;12.00;8.30;;;;;;;;;;5049481;28;20021;-71
2021/10/31 08:22:23;;;;;;;11.50;9.57;;;;;;;;;;5049607;28;20031;-72
2021/10/31 08:24:49;;;;;;;14.65;9.65;;;;;;;;;;5052182;28;20028;-72
2021/10/31 08:27:15;;;;;;;15.23;9.35;;;;;;;;;;5046937;28;20025;-73
2021/10/31 08:29:44;;;;;;;10.35;9.02;;;;;;;;;;5051388;28;20511;-72
2021/10/31 08:32:11;;;;;;;10.85;9.15;;;;;;;;;;5043372;28;20029;-71
2021/10/31 08:34:38;;;;;;;11.15;8.55;;;;;;;;;;5049823;28;20115;-71
2021/10/31 08:37:04;;;;;;;8.15;7.30;;;;;;;;;;5050328;28;20021;-72
2021/10/31 08:39:30;;;;;;;11.27;8.40;;;;;;;;;;5052031;28;20664;-71
2021/10/31 08:41:57;;;;;;;13.63;9.82;;;;;;;;;;5051762;28;20028;-73
2021/10/31 08:44:23;;;;;;;10.85;8.75;;;;;;;;;;5051188;28;20042;-71
2021/10/31 08:46:49;;;;;;;10.20;9.15;;;;;;;;;;5048316;28;20087;-71
2021/10/31 08:49:16;;;;;;;10.27;9.02;;;;;;;;;;5046912;28;20032;-72
2021/10/31 08:51:42;;;;;;;9.70;8.55;;;;;;;;;;5050799;28;20021;-71
2021/10/31 08:54:09;;;;;;;11.15;8.75;;;;;;;;;;5051051;28;20033;-72
2021/10/31 08:56:36;;;;;;;12.38;10.00;;;;;;;;;;5049770;28;20040;-72
2021/10/31 08:59:02;;;;;;;13.02;10.30;;;;;;;;;;5049527;28;20700;-71
2021/10/31 09:01:29;;;;;;;11.65;9.82;;;;;;;;;;5049329;28;20046;-72
2021/10/31 09:03:55;;;;;;;12.35;10.10;;;;;;;;;;5036870;28;20592;-71
2021/10/31 09:06:23;;;;;;;12.18;9.90;;;;;;;;;;5048242;28;20028;-71
2021/10/31 09:08:49;;;;;;;11.77;9.35;;;;;;;;;;5053709;28;20048;-71
2021/10/31 09:11:15;;;;;;;10.48;9.13;;;;;;;;;;5055924;28;20101;-71
2021/10/31 09:13:41;;;;;;;10.45;9.35;;;;;;;;;;5053418;28;20031;-71
2021/10/31 09:16:08;;;;;;;11.30;8.55;;;;;;;;;;5052059;28;20094;-71
2021/10/31 09:18:34;;;;;;;9.02;7.50;;;;;;;;;;5050822;28;20052;-72
2021/10/31 09:21:02;;;;;;;11.05;9.25;;;;;;;;;;5055725;28;20031;-71
2021/10/31 09:23:28;;;;;;;10.13;8.93;;;;;;;;;;5053862;28;20484;-71
2021/10/31 09:25:55;;;;;;;8.85;7.93;;;;;;;;;;5053078;28;20033;-71
2021/10/31 09:28:21;;;;;;;12.10;9.60;;;;;;;;;;5053698;28;20033;-71
2021/10/31 09:30:47;;;;;;;10.50;9.40;;;;;;;;;;5037670;28;20527;-72
2021/10/31 09:33:14;;;;;;;11.00;9.77;;;;;;;;;;5055444;28;20025;-72
2021/10/31 09:35:47;;;;;;;12.13;10.80;;;;;;;;;;5058064;28;20035;-71
2021/10/31 09:38:14;;;;;;;18.15;13.35;;;;;;;;;;5054849;28;20436;-72
2021/10/31 09:40:40;;;;;;;12.75;11.13;;;;;;;;;;5056723;28;20111;-72
2021/10/31 09:43:07;;;;;;;13.55;11.18;;;;;;;;;;5054650;28;20115;-72
2021/10/31 09:45:34;;;;;;;13.85;12.13;;;;;;;;;;5057353;28;20028;-73
2021/10/31 09:48:01;;;;;;;17.42;13.45;;;;;;;;;;5054266;28;20099;-71
2021/10/31 09:50:29;;;;;;;15.90;13.57;;;;;;;;;;5053875;28;20028;-71
2021/10/31 09:52:56;;;;;;;13.07;11.55;;;;;;;;;;5032354;28;20435;-71
2021/10/31 09:55:22;;;;;;;14.63;11.45;;;;;;;;;;5056432;28;20025;-72
2021/10/31 09:57:49;;;;;;;15.75;12.00;;;;;;;;;;5057041;28;20203;-72
2021/10/31 10:00:19;;;;;;;13.77;10.73;;;;;;;;;;5055883;28;20025;-72
2021/10/31 10:03:23;;;;;;;18.55;12.45;;;;;;;;;;5056374;28;20040;-73
2021/10/31 10:05:38;;;;;;;14.50;11.75;;;;;;;;;;5053063;28;20098;-72
2021/10/31 10:08:22;;;;;;;14.43;12.50;;;;;;;;;;5055134;28;20036;-72
2021/10/31 10:10:53;;;;;;;12.88;11.57;;;;;;;;;;5049674;28;20066;-72
2021/10/31 10:13:24;;;;;;;12.77;11.30;;;;;;;;;;5053256;28;20036;-72
2021/10/31 10:15:51;;;;;;;14.00;11.63;;;;;;;;;;5057357;28;20567;-73
2021/10/31 10:18:31;;;;;;;11.43;10.32;;;;;;;;;;5058659;28;20114;-72
2021/10/31 10:21:14;;;;;;;16.33;10.70;;;;;;;;;;5060890;28;20039;-72
2021/10/31 10:23:51;;;;;;;13.73;10.38;;;;;;;;;;5058237;28;20028;-71
2021/10/31 10:26:31;;;;;;;12.05;10.02;;;;;;;;;;5040471;28;20032;-75
2021/10/31 10:29:01;;;;;;;11.63;8.77;;;;;;;;;;5056514;28;20028;-71
2021/10/31 10:31:28;;;;;;;10.82;7.93;;;;;;;;;;5060038;28;20106;-71
2021/10/31 10:33:54;;;;;;;8.60;7.50;;;;;;;;;;5058784;28;20067;-71
2021/10/31 10:36:20;;;;;;;9.15;7.00;;;;;;;;;;5055098;28;20108;-72
2021/10/31 10:39:03;;;;;;;8.63;7.35;;;;;;;;;;5056968;28;20044;-71
2021/10/31 10:41:48;;;;;;;9.73;7.80;;;;;;;;;;5048053;28;20028;-73
2021/10/31 10:44:29;;;;;;;9.95;7.65;;;;;;;;;;5053959;28;20075;-72
2021/10/31 10:47:08;;;;;;;12.57;8.00;;;;;;;;;;5046509;28;20130;-72
2021/10/31 10:49:43;;;;;;;9.57;7.38;;;;;;;;;;5055490;28;20589;-72
2021/10/31 10:52:21;;;;;;;9.73;7.90;;;;;;;;;;5044938;28;20033;-73
2021/10/31 10:55:07;;;;;;;10.32;7.93;;;;;;;;;;5054847;28;20460;-72
2021/10/31 10:57:37;;;;;;;10.27;7.60;;;;;;;;;;5056626;28;20032;-72
2021/10/31 11:00:12;;;;;;;8.45;7.55;;;;;;;;;;5055386;28;20025;-71
2021/10/31 11:02:39;;;;;;;8.60;7.70;;;;;;;;;;5049426;28;20033;-72
2021/10/31 11:05:10;;;;;;;10.73;7.10;;;;;;;;;;5055414;28;20029;-73
2021/10/31 11:07:57;;;;;;;9.70;7.82;;;;;;;;;;5055811;28;20022;-72
2021/10/31 11:10:25;;;;;;;10.52;7.47;;;;;;;;;;5057416;28;20098;-71
2021/10/31 11:12:56;;;;;;;11.65;7.70;;;;;;;;;;5058115;28;20491;-72
2021/10/31 11:15:24;;;;;;;11.27;7.87;;;;;;;;;;5054387;28;20060;-73
2021/10/31 11:17:51;;;;;;;9.45;6.65;;;;;;;;;;5054541;28;20281;-72
2021/10/31 11:20:19;;;;;;;9.88;5.65;;;;;;;;;;5054647;28;20032;-71
2021/10/31 11:22:46;;;;;;;6.45;5.05;;;;;;;;;;5053391;28;20029;-72
2021/10/31 11:25:14;;;;;;;7.15;5.10;;;;;;;;;;5053518;28;20059;-73
2021/10/31 11:27:40;;;;;;;5.82;5.20;;;;;;;;;;5055142;28;20029;-73
2021/10/31 11:30:08;;;;;;;9.50;6.03;;;;;;;;;;5054257;28;20416;-72
2021/10/31 11:32:35;;;;;;;5.50;4.95;;;;;;;;;;5054512;28;20056;-71
2021/10/31 11:35:02;;;;;;;6.15;5.55;;;;;;;;;;5055937;28;20468;-72
2021/10/31 11:37:43;;;;;;;6.28;5.63;;;;;;;;;;5053237;28;20041;-72
2021/10/31 11:40:10;;;;;;;7.35;5.38;;;;;;;;;;5051766;28;20060;-72
2021/10/31 11:42:40;;;;;;;5.53;4.90;;;;;;;;;;5056470;28;20396;-72
2021/10/31 11:45:11;;;;;;;6.35;5.57;;;;;;;;;;5048494;28;20365;-71
2021/10/31 11:47:38;;;;;;;7.47;5.68;;;;;;;;;;5056941;28;20024;-72
2021/10/31 11:50:09;;;;;;;8.00;5.43;;;;;;;;;;5055623;28;20113;-72
2021/10/31 11:52:49;;;;;;;7.23;5.60;;;;;;;;;;5051700;28;20033;-72
2021/10/31 11:55:25;;;;;;;6.47;5.72;;;;;;;;;;5054168;28;20041;-71
2021/10/31 11:57:56;;;;;;;8.80;5.70;;;;;;;;;;5067756;28;20035;-72
2021/10/31 12:00:24;;;;;;;6.95;6.28;;;;;;;;;;5072433;28;20078;-73
2021/10/31 12:02:54;;;;;;;9.52;7.45;;;;;;;;;;5073987;28;20036;-73
2021/10/31 12:05:39;;;;;;;10.38;7.82;;;;;;;;;;5054378;28;20060;-71
2021/10/31 12:08:06;;;;;;;7.07;6.38;;;;;;;;;;5073254;28;20070;-72
2021/10/31 12:10:33;;;;;;;8.68;6.68;;;;;;;;;;5075937;28;20024;-72
2021/10/31 12:13:13;;;;;;;6.88;6.15;;;;;;;;;;5075940;28;20375;-72
2021/10/31 12:15:39;;;;;;;8.70;6.78;;;;;;;;;;5073606;28;20030;-71
2021/10/31 12:18:08;;;;;;;6.90;6.20;;;;;;;;;;5072100;28;20028;-71
2021/10/31 12:20:50;;;;;;;7.32;6.53;;;;;;;;;;5075267;28;20468;-72
2021/10/31 12:23:16;;;;;;;;;;;;;;;;;;5076500;28;20036;-72
2021/10/31 12:25:43;;;;;;;9.43;6.45;;;;;;;;;;5069904;28;19966;-71
2021/10/31 12:28:29;;;;;;;8.18;6.82;;;;;;;;;;5075517;28;20153;-71
2021/10/31 12:31:15;;;;;;;7.93;6.72;;;;;;;;;;5072681;28;20484;-72
2021/10/31 12:34:00;;;;;;;8.02;6.35;;;;;;;;;;5072046;28;20108;-71
2021/10/31 12:36:30;;;;;;;8.30;6.40;;;;;;;;;;5070829;28;20043;-73
2021/10/31 12:38:56;;;;;;;10.15;7.05;;;;;;;;;;5075834;28;20503;-72
2021/10/31 12:41:23;;;;;;;8.50;6.60;;;;;;;;;;5070565;28;20111;-72
2021/10/31 12:43:52;;;;;;;12.05;7.15;;;;;;;;;;5059350;28;20073;-72
2021/10/31 12:46:26;;;;;;;9.55;7.82;;;;;;;;;;5082801;28;20103;-72
2021/10/31 12:49:00;;;;;;;10.38;8.02;;;;;;;;;;5073525;28;20375;-73
2021/10/31 12:51:48;;;;;;;7.47;6.65;;;;;;;;;;5068997;28;20104;-72
2021/10/31 12:54:19;;;;;;;11.15;7.20;;;;;;;;;;5063573;28;20033;-73
2021/10/31 12:56:46;;;;;;;9.88;7.13;;;;;;;;;;5062548;28;20032;-72
2021/10/31 12:59:16;;;;;;;7.80;6.30;;;;;;;;;;5056237;28;20131;-72
2021/10/31 13:01:43;;;;;;;8.32;7.00;;;;;;;;;;5057183;28;20029;-71
2021/10/31 13:04:09;;;;;;;10.43;6.88;;;;;;;;;;5056452;28;20049;-72
2021/10/31 13:06:55;;;;;;;11.70;7.30;;;;;;;;;;5054638;28;20034;-71
2021/10/31 13:09:22;;;;;;;10.30;7.55;;;;;;;;;;5053544;28;20032;-73
2021/10/31 13:11:48;;;;;;;9.40;7.50;;;;;;;;;;5057826;28;20025;-71
2021/10/31 13:14:43;;;;;;;8.95;6.43;;;;;;;;;;5058384;28;20112;-72
2021/10/31 13:17:09;;;;;;;9.98;5.35;;;;;;;;;;5037573;28;20538;-72
2021/10/31 13:19:39;;;;;;;8.20;5.30;;;;;;;;;;5060020;28;20036;-72
2021/10/31 13:22:12;;;;;;;6.20;5.38;;;;;;;;;;5056038;28;20457;-72
2021/10/31 13:24:45;;;;;;;8.25;5.80;;;;;;;;;;5054410;28;20021;-73
2021/10/31 13:27:17;;;;;;;6.40;5.05;;;;;;;;;;5057412;28;20030;-71
2021/10/31 13:29:44;;;;;;;8.88;6.35;;;;;;;;;;5059788;28;20021;-71
2021/10/31 13:32:14;;;;;;;9.52;5.85;;;;;;;;;;5063693;28;20418;-72
2021/10/31 13:34:40;;;;;;;10.77;6.80;;;;;;;;;;5063183;28;20032;-72
2021/10/31 13:37:07;;;;;;;7.50;6.55;;;;;;;;;;5064557;28;20025;-72
2021/10/31 13:39:33;;;;;;;7.88;5.97;;;;;;;;;;5063712;28;20063;-72
2021/10/31 13:42:00;;;;;;;7.03;4.85;;;;;;;;;;5063819;28;20020;-71
2021/10/31 13:44:27;;;;;;;5.63;4.63;;;;;;;;;;5063772;28;20043;-72
2021/10/31 13:47:11;;;;;;;5.82;3.53;;;;;;;;;;5064235;28;20522;-72
2021/10/31 13:49:44;;;;;;;7.82;4.10;;;;;;;;;;5055176;28;20036;-72
2021/10/31 13:52:11;;;;;;;4.55;3.95;;;;;;;;;;5059030;28;20086;-71
2021/10/31 13:54:37;;;;;;;12.73;4.65;;;;;;;;;;5064717;28;20382;-71
2021/10/31 13:57:03;;;;;;;6.72;3.63;;;;;;;;;;5061197;28;20041;-72
2021/10/31 13:59:30;;;;;;;7.10;3.95;;;;;;;;;;5063236;28;20651;-71
2021/10/31 14:01:58;;;;;;;4.97;3.75;;;;;;;;;;5065881;28;20025;-72
2021/10/31 14:04:32;;;;;;;5.03;4.05;;;;;;;;;;5061713;28;20369;-71
2021/10/31 14:07:03;;;;;;;5.68;3.83;;;;;;;;;;5064134;28;20117;-71
2021/10/31 14:09:29;;;;;;;6.40;3.53;;;;;;;;;;5057222;28;20029;-73
2021/10/31 14:12:05;;;;;;;6.88;4.05;;;;;;;;;;5055319;28;20362;-73
2021/10/31 14:14:40;;;;;;;5.88;3.78;;;;;;;;;;5061954;28;20106;-69
2021/10/31 14:17:15;;;;;;;4.45;3.75;;;;;;;;;;5050689;28;20025;-71
2021/10/31 14:19:44;;;;;;;6.05;3.78;;;;;;;;;;5066159;28;20052;-71
2021/10/31 14:22:12;;;;;;;7.75;4.28;;;;;;;;;;5062771;28;20020;-71
2021/10/31 14:24:38;;;;;;;4.50;3.80;;;;;;;;;;5062987;28;20039;-71
2021/10/31 14:27:20;;;;;;;6.40;4.10;;;;;;;;;;5061527;28;20046;-71
2021/10/31 14:29:47;;;;;;;7.35;4.20;;;;;;;;;;5046639;28;20232;-71
2021/10/31 14:32:13;;;;;;;5.22;3.78;;;;;;;;;;5049507;28;20028;-73
2021/10/31 14:34:55;;;;;;;7.80;4.65;;;;;;;;;;5064929;28;20542;-73
2021/10/31 14:37:21;;;;;;;7.30;4.38;;;;;;;;;;5065163;28;20431;-73
2021/10/31 14:39:47;;;;;;;6.90;4.20;;;;;;;;;;5047599;28;20250;-73
2021/10/31 14:42:30;;;;;;;8.85;4.95;;;;;;;;;;5064787;28;20020;-73